createdAt,value
2018-11-12T00:01:27.535Z,99277.91
2018-11-12T00:07:32.747Z,99271.80
2018-11-12T00:13:37.739Z,99278.19
2018-11-12T00:19:42.392Z,99267.55
2018-11-12T00:25:47.133Z,99281.50
2018-11-12T00:31:51.817Z,99274.39
2018-11-12T00:37:57.241Z,99273.66
2018-11-12T00:44:02.245Z,99287.39
2018-11-12T00:50:08.728Z,99285.23
2018-11-12T00:56:13.423Z,99290.91
2018-11-12T01:02:18.132Z,99279.04
2018-11-12T01:08:23.468Z,99283.70
2018-11-12T01:14:28.146Z,99275.20
2018-11-12T01:20:33.629Z,99265.91
2018-11-12T01:26:38.920Z,99257.98
2018-11-12T01:32:43.905Z,99265.30
2018-11-12T01:38:48.668Z,99271.30
2018-11-12T01:44:53.432Z,99273.66
2018-11-12T01:50:58.405Z,99286.84
2018-11-12T01:57:03.044Z,99276.10
2018-11-12T02:03:07.921Z,99276.63
2018-11-12T02:09:13.451Z,99279.44
2018-11-12T02:15:20.436Z,99285.00
2018-11-12T02:21:25.609Z,99284.18
2018-11-12T02:27:30.979Z,99281.09
2018-11-12T02:33:36.782Z,99282.22
2018-11-12T02:39:41.484Z,99292.97
2018-11-12T02:45:46.184Z,99310.00
2018-11-12T02:51:51.774Z,99296.58
2018-11-12T02:57:56.467Z,99295.14
2018-11-12T03:04:01.282Z,99294.84
2018-11-12T03:10:09.053Z,99288.54
2018-11-12T03:16:14.012Z,99269.63
2018-11-12T03:22:19.096Z,99271.39
2018-11-12T03:28:23.800Z,99269.33
2018-11-12T03:34:28.506Z,99276.55
2018-11-12T03:40:33.433Z,99279.23
2018-11-12T03:46:39.187Z,99271.29
2018-11-12T03:52:44.225Z,99265.30
2018-11-12T03:58:48.958Z,99251.89
2018-11-12T04:04:53.745Z,99241.33
2018-11-12T04:10:58.935Z,99248.76
2018-11-12T04:17:03.641Z,99253.00
2018-11-12T04:23:08.869Z,99260.44
2018-11-12T04:29:13.577Z,99265.91
2018-11-12T04:35:18.326Z,99275.10
2018-11-12T04:41:23.686Z,99271.98
2018-11-12T04:47:28.460Z,99285.14
2018-11-12T04:53:33.997Z,99285.22
2018-11-12T04:59:38.829Z,99276.96
2018-11-12T05:05:43.483Z,99264.55
2018-11-12T05:11:48.241Z,99278.00
2018-11-12T05:17:52.967Z,99274.70
2018-11-12T05:23:57.929Z,99271.81
2018-11-12T05:30:02.688Z,99264.67
2018-11-12T05:36:07.793Z,99261.56
2018-11-12T05:42:12.548Z,99267.66
2018-11-12T05:48:17.405Z,99265.27
2018-11-12T05:54:22.155Z,99259.00
2018-11-12T06:00:30.357Z,99264.66
2018-11-12T06:06:35.940Z,99258.36
2018-11-12T06:12:41.428Z,99265.08
2018-11-12T06:18:46.128Z,99259.30
2018-11-12T06:24:50.832Z,99263.94
2018-11-12T06:30:55.594Z,99265.52
2018-11-12T06:37:00.952Z,99265.31
2018-11-12T06:43:06.545Z,99266.74
2018-11-12T06:49:11.246Z,99253.09
2018-11-12T06:55:17.009Z,99251.84
2018-11-12T07:01:21.781Z,99258.17
2018-11-12T07:07:26.866Z,99270.04
2018-11-12T07:13:32.251Z,99270.47
2018-11-12T07:19:37.565Z,99262.69
2018-11-12T07:25:42.314Z,99262.49
2018-11-12T07:31:47.303Z,99265.52
2018-11-12T07:37:53.151Z,99260.09
2018-11-12T07:43:58.447Z,99255.28
2018-11-12T07:50:03.337Z,99250.20
2018-11-12T07:56:08.473Z,99258.48
2018-11-12T08:02:13.596Z,99254.89
2018-11-12T08:08:18.892Z,99248.84
2018-11-12T08:14:23.823Z,99253.92
2018-11-12T08:20:28.628Z,99242.58
2018-11-12T08:26:33.435Z,99226.67
2018-11-12T08:32:38.278Z,99222.74
2018-11-12T08:38:43.015Z,99209.14
2018-11-12T08:44:47.769Z,99206.34
2018-11-12T08:50:52.485Z,99213.56
2018-11-12T08:56:57.643Z,99231.37
2018-11-12T09:03:02.821Z,99231.40
2018-11-12T09:09:12.053Z,99238.00
2018-11-12T09:15:17.102Z,99246.52
2018-11-12T09:21:21.902Z,99268.09
2018-11-12T09:27:26.620Z,99250.97
2018-11-12T09:33:31.391Z,99253.05
2018-11-12T09:39:36.141Z,99251.95
2018-11-12T09:45:41.419Z,99250.83
2018-11-12T09:51:46.112Z,99246.87
2018-11-12T09:57:53.181Z,99252.22
2018-11-12T10:03:59.582Z,99259.42
2018-11-12T10:10:05.768Z,99254.59
2018-11-12T10:16:11.497Z,99261.46
2018-11-12T10:22:13.319Z,99241.50
2018-11-12T10:28:19.680Z,99235.00
2018-11-12T10:34:24.373Z,99235.86
2018-11-12T10:40:29.164Z,99235.32
2018-11-12T10:46:34.785Z,99234.30
2018-11-12T10:52:39.893Z,99239.87
2018-11-12T10:58:45.013Z,99235.34
2018-11-12T11:04:49.930Z,99240.27
2018-11-12T11:10:54.690Z,99226.36
2018-11-12T11:16:59.578Z,99218.38
2018-11-12T11:23:04.545Z,99222.27
2018-11-12T11:29:09.548Z,99229.91
2018-11-12T11:35:16.125Z,99233.80
2018-11-12T11:41:20.860Z,99230.91
2018-11-12T11:47:26.023Z,99223.50
2018-11-12T11:53:30.615Z,99223.41
2018-11-12T11:59:36.263Z,99226.14
2018-11-12T12:05:41.077Z,99222.12
2018-11-12T12:11:46.027Z,99226.53
2018-11-12T12:17:50.861Z,99235.97
2018-11-12T12:23:55.648Z,99232.97
2018-11-12T12:30:00.462Z,99221.23
2018-11-12T12:36:05.529Z,99214.51
2018-11-12T12:42:10.653Z,99212.05
2018-11-12T12:48:15.396Z,99191.34
2018-11-12T12:54:20.143Z,99186.92
2018-11-12T13:00:26.271Z,99214.85
2018-11-12T13:06:31.668Z,99211.30
2018-11-12T13:12:36.389Z,99207.42
2018-11-12T13:18:41.256Z,99211.78
2018-11-12T13:24:46.612Z,99206.08
2018-11-12T13:30:51.386Z,99213.41
2018-11-12T13:36:56.661Z,99207.17
2018-11-12T13:43:01.790Z,99221.05
2018-11-12T13:49:07.072Z,99213.59
2018-11-12T13:55:13.036Z,99231.70
2018-11-12T14:01:17.748Z,99238.25
2018-11-12T14:07:22.866Z,99231.30
2018-11-12T14:13:27.657Z,99227.89
2018-11-12T14:19:32.488Z,99228.92
2018-11-12T14:25:38.197Z,99233.32
2018-11-12T14:31:43.021Z,99231.18
2018-11-12T14:37:48.474Z,99243.34
2018-11-12T14:43:53.213Z,99253.37
2018-11-12T14:49:57.957Z,99237.39
2018-11-12T14:56:03.762Z,99242.73
2018-11-12T15:02:08.644Z,99241.79
2018-11-12T15:08:13.426Z,99231.41
2018-11-12T15:14:18.280Z,99242.12
2018-11-12T15:20:23.348Z,99245.36
2018-11-12T15:26:28.706Z,99239.69
2018-11-12T15:32:33.516Z,99248.14
2018-11-12T15:38:38.286Z,99243.91
2018-11-12T15:44:43.482Z,99267.09
2018-11-12T15:50:48.336Z,99265.14
2018-11-12T15:56:53.341Z,99266.92
2018-11-12T16:02:58.145Z,99273.52
2018-11-12T16:09:03.343Z,99283.03
2018-11-12T16:15:09.639Z,99286.44
2018-11-12T16:21:14.364Z,99280.41
2018-11-12T16:27:19.523Z,99285.50
2018-11-12T16:33:24.198Z,99279.01
2018-11-12T16:39:29.096Z,99282.94
2018-11-12T16:45:34.299Z,99287.22
2018-11-12T16:51:39.716Z,99302.17
2018-11-12T16:57:44.535Z,99297.64
2018-11-12T17:03:49.806Z,99295.20
2018-11-12T17:09:54.982Z,99296.62
2018-11-12T17:15:59.782Z,99316.73
2018-11-12T17:22:04.596Z,99324.59
2018-11-12T17:28:09.851Z,99341.80
2018-11-12T17:34:14.755Z,99337.03
2018-11-12T17:40:22.720Z,99344.42
2018-11-12T17:46:27.511Z,99342.74
2018-11-12T17:52:32.421Z,99342.64
2018-11-12T17:58:37.430Z,99346.72
2018-11-12T18:04:42.534Z,99338.78
2018-11-12T18:10:47.384Z,99345.81
2018-11-12T18:16:52.219Z,99349.68
2018-11-12T18:22:57.890Z,99366.45
2018-11-12T18:29:02.748Z,99363.50
2018-11-12T18:35:08.338Z,99366.05
2018-11-12T18:41:13.621Z,99373.86
2018-11-12T18:47:18.310Z,99384.49
2018-11-12T18:53:23.325Z,99393.25
2018-11-12T18:59:28.042Z,99396.01
2018-11-12T19:05:33.231Z,99416.10
2018-11-12T19:11:38.621Z,99431.66
2018-11-12T19:17:44.803Z,99438.63
2018-11-12T19:23:49.530Z,99424.80
2018-11-12T19:29:54.716Z,99424.03
2018-11-12T19:35:59.738Z,99442.25
2018-11-12T19:42:04.521Z,99439.80
2018-11-12T19:48:09.276Z,99451.17
2018-11-12T19:54:14.017Z,99463.33
2018-11-12T20:00:20.867Z,99465.84
2018-11-12T20:06:25.732Z,99473.05
2018-11-12T20:12:30.959Z,99476.19
2018-11-12T20:18:35.795Z,99489.71
2018-11-12T20:24:40.499Z,99501.69
2018-11-12T20:30:45.257Z,99514.17
2018-11-12T20:36:51.620Z,99527.27
2018-11-12T20:42:56.763Z,99553.39
2018-11-12T20:49:01.793Z,99565.55
2018-11-12T20:55:08.513Z,99573.25
2018-11-12T21:01:13.333Z,99597.00
2018-11-12T21:07:18.162Z,99588.14
2018-11-12T21:13:22.934Z,99600.62
2018-11-12T21:19:27.837Z,99600.50
2018-11-12T21:25:33.023Z,99592.06
2018-11-12T21:31:38.050Z,99582.78
2018-11-12T21:37:42.927Z,99610.33
2018-11-12T21:43:47.849Z,99612.47
2018-11-12T21:49:52.613Z,99590.59
2018-11-12T21:55:57.340Z,99615.27
2018-11-12T22:02:02.066Z,99611.02
2018-11-12T22:08:07.717Z,99610.40
2018-11-12T22:14:12.450Z,99605.20
2018-11-12T22:20:19.022Z,99583.45
2018-11-12T22:26:23.777Z,99612.16
2018-11-12T22:32:29.042Z,99617.14
2018-11-12T22:38:33.832Z,99645.84
2018-11-12T22:44:38.553Z,99644.98
2018-11-12T22:50:44.008Z,99644.26
2018-11-12T22:56:48.679Z,99641.56
2018-11-12T23:02:53.637Z,99651.33
2018-11-12T23:08:58.605Z,99659.27
2018-11-12T23:15:03.900Z,99667.16
2018-11-12T23:21:08.654Z,99666.84
2018-11-12T23:27:14.230Z,99653.20
2018-11-12T23:33:18.990Z,99647.48
2018-11-12T23:39:23.828Z,99654.55
2018-11-12T23:45:28.942Z,99663.65
2018-11-12T23:51:33.825Z,99664.56
2018-11-12T23:57:38.918Z,99666.23
